Time;durP1;ratioP1;P1;durP2;ratioP2;P2;SDS_P1;SDS_P2;PMS_P1;PMS_P2;Temp;Humidity;BMP_temperature;BMP_pressure;BME280_temperature;BME280_humidity;BME280_pressure;Samples;Min_cycle;Max_cycle;Signal;HPM_P1;HPM_P2
2023/04/26 09:39:57;;;;;;;5.73;2.30;;;8.40;1.00;;;;;;5114293;27;20567;-67
2023/04/26 09:42:25;;;;;;;6.30;2.40;;;8.30;1.00;;;;;;5114662;28;20817;-68
2023/04/26 09:44:53;;;;;;;5.00;2.20;;;8.30;1.00;;;;;;5112353;28;20781;-68
2023/04/26 09:47:22;;;;;;;6.43;2.40;;;8.20;1.00;;;;;;5092373;28;20544;-68
2023/04/26 09:49:50;;;;;;;5.80;1.70;;;8.30;1.00;;;;;;5092958;28;20445;-68
2023/04/26 09:52:18;;;;;;;4.60;2.17;;;8.30;1.00;;;;;;5095869;28;20836;-66
2023/04/26 09:54:47;;;;;;;8.30;2.00;;;8.30;1.00;;;;;;5093825;28;20789;-67
2023/04/26 09:57:18;;;;;;;8.53;2.87;;;8.30;1.00;;;;;;5094628;28;20477;-67
2023/04/26 09:59:46;;;;;;;3.23;2.00;;;8.30;99.90;;;;;;5093372;28;20481;-67
2023/04/26 10:02:20;;;;;;;14.40;2.37;;;8.30;99.90;;;;;;5092738;28;20458;-67
2023/04/26 10:04:49;;;;;;;7.50;2.40;;;8.30;29.60;;;;;;5092974;28;20495;-67
2023/04/26 10:07:18;;;;;;;7.13;2.80;;;8.30;1.00;;;;;;5094273;28;20528;-68
2023/04/26 10:09:45;;;;;;;6.13;2.90;;;8.30;1.00;;;;;;5093421;28;20467;-68
2023/04/26 10:12:13;;;;;;;6.93;2.70;;;8.40;1.00;;;;;;5091001;28;20469;-68
2023/04/26 10:14:43;;;;;;;7.40;2.30;;;8.50;1.00;;;;;;5092657;28;20853;-67
2023/04/26 10:17:10;;;;;;;4.93;1.93;;;8.70;1.00;;;;;;5092355;28;20534;-68
2023/04/26 10:19:38;;;;;;;4.53;1.80;;;8.90;1.00;;;;;;5092186;28;20484;-68
2023/04/26 10:22:08;;;;;;;4.20;2.47;;;9.10;1.00;;;;;;5092340;28;20453;-68
2023/04/26 10:24:36;;;;;;;6.30;2.60;;;9.10;1.00;;;;;;5092333;28;20536;-67
2023/04/26 10:27:04;;;;;;;6.57;2.27;;;9.10;1.00;;;;;;5092581;28;20856;-67
2023/04/26 10:30:06;;;;;;;4.80;2.47;;;8.70;1.00;;;;;;5092009;28;20894;-67
2023/04/26 10:33:22;;;;;;;4.43;1.97;;;8.40;1.00;;;;;;5093344;28;20457;-67
2023/04/26 10:36:04;;;;;;;3.50;2.10;;;8.10;1.00;;;;;;5093004;28;20449;-67
2023/04/26 10:38:31;;;;;;;8.50;2.50;;;8.10;1.00;;;;;;5091115;28;20489;-68
2023/04/26 10:41:32;;;;;;;7.67;3.17;;;8.10;1.00;;;;;;5093448;28;20457;-68
2023/04/26 10:44:18;;;;;;;3.10;2.40;;;8.00;1.00;;;;;;5095264;28;20487;-67
2023/04/26 10:46:51;;;;;;;8.33;2.80;;;8.00;1.00;;;;;;5095363;28;20467;-67
2023/04/26 10:49:21;;;;;;;6.63;2.37;;;8.00;1.00;;;;;;5092385;28;20431;-67
2023/04/26 10:52:13;;;;;;;5.83;2.60;;;8.20;1.00;;;;;;5081499;28;20506;-68
2023/04/26 10:54:56;;;;;;;7.20;2.50;;;8.30;27.60;;;;;;5081337;28;20450;-67
2023/04/26 10:57:25;;;;;;;9.00;2.30;;;8.60;1.00;;;;;;5078535;28;20546;-66
2023/04/26 11:00:32;;;;;;;6.03;2.50;;;8.90;1.00;;;;;;5081198;28;20585;-68
2023/04/26 11:03:04;;;;;;;4.50;2.63;;;8.70;1.00;;;;;;5080972;28;20452;-68
2023/04/26 11:05:51;;;;;;;6.47;2.53;;;8.60;1.00;;;;;;5081190;28;20439;-68
2023/04/26 11:08:20;;;;;;;5.77;2.60;;;8.70;1.00;;;;;;5081248;28;20442;-67
2023/04/26 11:10:52;;;;;;;5.57;2.77;;;8.70;1.00;;;;;;5079927;28;20927;-67
2023/04/26 11:13:19;;;;;;;9.23;3.00;;;8.60;1.00;;;;;;5080665;28;20450;-67
2023/04/26 11:15:47;;;;;;;5.67;2.87;;;8.60;1.00;;;;;;5081096;28;20549;-68
2023/04/26 11:18:18;;;;;;;5.37;2.60;;;8.50;1.00;;;;;;5081135;28;20539;-67
2023/04/26 11:20:46;;;;;;;5.03;2.73;;;8.60;15.20;;;;;;5080757;28;20442;-67
2023/04/26 11:23:14;;;;;;;6.30;3.60;;;8.70;1.00;;;;;;5080503;28;20550;-68
2023/04/26 11:25:41;;;;;;;5.30;2.53;;;9.00;1.00;;;;;;5080453;28;20828;-68
2023/04/26 11:28:08;;;;;;;4.33;2.77;;;9.20;1.00;;;;;;5078544;28;20457;-67
2023/04/26 11:30:35;;;;;;;6.10;3.17;;;9.70;1.00;;;;;;5078978;28;20599;-67
2023/04/26 11:33:03;;;;;;;2.63;2.40;;;10.00;1.00;;;;;;5080093;28;20537;-67
2023/04/26 11:35:30;;;;;;;5.10;2.47;;;10.00;1.00;;;;;;5080140;28;20462;-68
2023/04/26 11:38:00;;;;;;;4.53;2.70;;;9.80;1.00;;;;;;5079595;28;20974;-68
2023/04/26 11:40:31;;;;;;;4.57;3.00;;;9.50;1.00;;;;;;5079108;28;20786;-67
2023/04/26 11:43:02;;;;;;;6.07;3.03;;;9.60;1.00;;;;;;5078254;28;20446;-68
2023/04/26 11:45:29;;;;;;;8.33;3.30;;;9.80;1.00;;;;;;5079374;28;20529;-67
2023/04/26 11:47:57;;;;;;;6.13;2.93;;;9.70;1.00;;;;;;5078568;28;20458;-67
2023/04/26 11:50:25;;;;;;;13.80;3.63;;;9.70;1.00;;;;;;5077866;28;20754;-67
2023/04/26 11:52:55;;;;;;;9.97;3.30;;;10.10;1.00;;;;;;5080124;28;20464;-68
2023/04/26 11:55:28;;;;;;;7.83;3.47;;;10.10;1.00;;;;;;5079550;28;20953;-67
2023/04/26 11:57:56;;;;;;;8.60;3.07;;;10.00;1.00;;;;;;5078500;28;20474;-67
2023/04/26 12:00:23;;;;;;;3.83;3.30;;;10.60;1.00;;;;;;5077737;28;20547;-67
2023/04/26 12:02:50;;;;;;;9.70;2.70;;;10.60;1.00;;;;;;5077998;28;20454;-67
2023/04/26 12:05:25;;;;;;;8.37;2.70;;;10.70;1.00;;;;;;5079570;28;20458;-67
2023/04/26 12:07:54;;;;;;;8.77;2.70;;;11.00;1.00;;;;;;5080065;28;20544;-67
2023/04/26 12:10:26;;;;;;;3.70;2.80;;;11.10;1.00;;;;;;5079120;28;20455;-67
2023/04/26 12:12:55;;;;;;;6.80;3.87;;;11.70;1.00;;;;;;5076729;28;20749;-67
2023/04/26 12:15:29;;;;;;;5.53;2.80;;;12.70;1.00;;;;;;5076092;28;20461;-67
2023/04/26 12:18:00;;;;;;;6.93;3.30;;;12.70;96.40;;;;;;5077160;28;20927;-67
2023/04/26 12:20:32;;;;;;;4.10;2.80;;;12.00;1.00;;;;;;5076481;28;20498;-68
2023/04/26 12:23:00;;;;;;;9.80;3.20;;;11.30;1.00;;;;;;5077923;28;20453;-67
2023/04/26 12:25:29;;;;;;;8.57;3.47;;;10.70;1.00;;;;;;5077514;28;20939;-67
2023/04/26 12:27:56;;;;;;;6.27;2.83;;;10.30;1.00;;;;;;5077934;28;20468;-67
2023/04/26 12:30:23;;;;;;;4.40;2.87;;;10.00;1.00;;;;;;5079191;28;20549;-68
2023/04/26 12:32:50;;;;;;;7.40;3.23;;;9.90;25.30;;;;;;5078400;28;20468;-67
2023/04/26 12:35:17;;;;;;;6.60;3.20;;;9.70;22.80;;;;;;5078657;28;20561;-68
2023/04/26 12:37:44;;;;;;;6.40;3.53;;;9.80;3.60;;;;;;5078517;28;20458;-66
2023/04/26 12:40:12;;;;;;;4.83;2.87;;;9.70;17.60;;;;;;5078366;28;20472;-68
2023/04/26 12:42:41;;;;;;;5.33;3.20;;;10.00;1.00;;;;;;5077926;28;20450;-68
2023/04/26 12:45:08;;;;;;;4.03;2.50;;;10.00;99.90;;;;;;5078175;28;20454;-68
2023/04/26 12:47:35;;;;;;;6.80;2.90;;;10.40;99.90;;;;;;5078766;28;20454;-68
2023/04/26 12:50:03;;;;;;;5.20;3.10;;;11.30;87.20;;;;;;5078152;28;20526;-68
2023/04/26 12:52:31;;;;;;;6.53;3.20;;;12.20;3.30;;;;;;5077000;28;20915;-68
2023/04/26 12:54:58;;;;;;;5.63;2.73;;;12.50;1.00;;;;;;5077074;28;20527;-67
2023/04/26 12:57:25;;;;;;;7.10;3.13;;;12.70;1.00;;;;;;5077687;28;20549;-68
2023/04/26 12:59:55;;;;;;;6.97;2.90;;;12.60;1.00;;;;;;5075439;28;20505;-68
2023/04/26 13:02:22;;;;;;;3.50;2.60;;;12.50;1.00;;;;;;5076466;28;20450;-67
2023/04/26 13:04:49;;;;;;;3.07;2.80;;;12.10;1.00;;;;;;5077189;28;20489;-67
2023/04/26 13:07:16;;;;;;;13.97;3.10;;;11.80;1.00;;;;;;5074644;28;20515;-68
2023/04/26 13:09:43;;;;;;;4.03;3.10;;;11.90;42.40;;;;;;5075697;28;20446;-68
2023/04/26 13:12:13;;;;;;;7.53;3.30;;;11.40;1.00;;;;;;5076784;28;20563;-67
2023/04/26 13:14:39;;;;;;;3.83;2.90;;;10.80;1.00;;;;;;5077109;28;20454;-68
2023/04/26 13:17:09;;;;;;;6.17;3.10;;;10.50;1.00;;;;;;5075646;28;20490;-68
2023/04/26 13:19:36;;;;;;;4.70;2.93;;;10.70;1.00;;;;;;5074627;28;20474;-68
2023/04/26 13:22:06;;;;;;;6.30;3.50;;;11.00;1.00;;;;;;5074524;28;20903;-66
2023/04/26 13:24:33;;;;;;;5.43;3.03;;;11.40;1.00;;;;;;5074932;28;20502;-67
2023/04/26 13:27:00;;;;;;;3.50;3.20;;;11.50;56.30;;;;;;5074817;28;20850;-68
2023/04/26 13:29:27;;;;;;;6.87;3.20;;;12.00;1.00;;;;;;5075848;28;20450;-68
2023/04/26 13:31:54;;;;;;;3.03;2.73;;;11.80;20.20;;;;;;5075703;28;20491;-67
2023/04/26 13:34:23;;;;;;;4.07;2.90;;;11.50;1.00;;;;;;5076638;28;20454;-68
2023/04/26 13:36:51;;;;;;;5.70;3.40;;;10.60;1.00;;;;;;5076300;28;20464;-67
2023/04/26 13:39:18;;;;;;;5.13;2.80;;;10.10;1.00;;;;;;5076003;28;20521;-68
2023/04/26 13:41:45;;;;;;;5.23;3.10;;;9.90;1.00;;;;;;5076485;28;20526;-67
2023/04/26 13:44:13;;;;;;;8.13;3.00;;;9.90;1.00;;;;;;5076671;28;20503;-67
2023/04/26 13:46:40;;;;;;;9.00;3.80;;;9.70;1.00;;;;;;5077387;28;20454;-68
2023/04/26 13:49:09;;;;;;;6.50;3.03;;;9.70;1.00;;;;;;5077229;28;20778;-67
2023/04/26 13:51:37;;;;;;;6.70;3.70;;;9.80;1.00;;;;;;5074842;28;20817;-68
2023/04/26 13:54:04;;;;;;;11.50;5.13;;;9.90;1.00;;;;;;5074679;28;20538;-67
2023/04/26 13:56:32;;;;;;;6.60;3.37;;;10.00;1.00;;;;;;5074940;28;20453;-67
2023/04/26 13:59:00;;;;;;;6.27;3.00;;;10.10;1.00;;;;;;5075331;28;20454;-67
2023/04/26 14:01:27;;;;;;;4.00;2.97;;;10.40;1.00;;;;;;5074905;28;20523;-68
2023/04/26 14:03:54;;;;;;;3.20;2.63;;;10.90;1.00;;;;;;5074609;28;20451;-68
2023/04/26 14:06:21;;;;;;;5.60;2.67;;;11.10;1.00;;;;;;5075107;28;20504;-68
2023/04/26 14:08:50;;;;;;;4.70;2.70;;;10.90;1.00;;;;;;5075182;28;20533;-67
2023/04/26 14:11:17;;;;;;;4.30;2.57;;;10.50;1.00;;;;;;5074673;28;20518;-67
2023/04/26 14:13:44;;;;;;;5.40;2.83;;;10.60;1.00;;;;;;5074239;28;20458;-68
2023/04/26 14:16:11;;;;;;;3.10;2.50;;;10.60;1.00;;;;;;5074459;28;20490;-67
2023/04/26 14:18:43;;;;;;;8.10;3.00;;;10.60;1.00;;;;;;5074286;28;20493;-68
2023/04/26 14:21:10;;;;;;;5.50;3.10;;;10.70;1.00;;;;;;5074862;28;20652;-67
2023/04/26 14:23:37;;;;;;;3.50;2.57;;;10.90;1.00;;;;;;5075136;28;20784;-67
2023/04/26 14:26:06;;;;;;;8.33;3.53;;;11.60;1.00;;;;;;5077503;28;20541;-67
2023/04/26 14:28:33;;;;;;;10.17;2.73;;;11.90;1.00;;;;;;5078525;28;20785;-67
2023/04/26 14:31:00;;;;;;;4.60;3.33;;;11.90;1.00;;;;;;5077925;28;20523;-68
2023/04/26 14:33:26;;;;;;;4.87;3.10;;;11.70;1.00;;;;;;5078285;28;20478;-67
2023/04/26 14:35:53;;;;;;;5.20;2.80;;;11.60;1.00;;;;;;5078125;28;20541;-67
2023/04/26 14:38:20;;;;;;;3.97;3.10;;;11.40;1.00;;;;;;5077637;28;20492;-67
2023/04/26 14:40:47;;;;;;;4.80;3.30;;;11.10;1.00;;;;;;5078107;28;20903;-67
2023/04/26 14:43:16;;;;;;;4.43;2.67;;;11.00;56.60;;;;;;5077767;28;20961;-68
2023/04/26 14:45:43;;;;;;;5.40;3.20;;;10.90;99.90;;;;;;5077550;28;20521;-68
2023/04/26 14:48:10;;;;;;;3.57;2.60;;;10.70;1.00;;;;;;5077976;28;20844;-67
2023/04/26 14:50:37;;;;;;;7.50;3.40;;;10.40;1.00;;;;;;5078958;28;20662;-68
2023/04/26 14:53:04;;;;;;;4.73;2.60;;;10.30;1.00;;;;;;5078116;28;20783;-67
2023/04/26 14:55:31;;;;;;;9.07;2.73;;;10.20;1.00;;;;;;5079049;28;20962;-66
2023/04/26 14:57:58;;;;;;;10.10;3.87;;;10.10;1.00;;;;;;5080938;28;20530;-67
2023/04/26 15:00:26;;;;;;;6.03;2.93;;;9.90;1.00;;;;;;5080166;28;20821;-68
2023/04/26 15:02:53;;;;;;;4.57;3.53;;;9.90;1.00;;;;;;5079671;28;20462;-68
2023/04/26 15:05:22;;;;;;;5.83;3.50;;;9.90;1.00;;;;;;5078421;28;20454;-67
2023/04/26 15:07:49;;;;;;;4.40;2.90;;;9.90;1.00;;;;;;5078386;28;20844;-67
2023/04/26 15:10:16;;;;;;;6.07;3.67;;;9.90;1.00;;;;;;5078181;28;20550;-68
2023/04/26 15:12:43;;;;;;;3.70;2.70;;;10.00;1.00;;;;;;5077309;28;20461;-67
2023/04/26 15:15:11;;;;;;;3.63;3.27;;;10.10;1.00;;;;;;5079729;28;20861;-66
2023/04/26 15:17:39;;;;;;;4.37;3.23;;;10.00;1.00;;;;;;5079218;28;20454;-67
2023/04/26 15:20:09;;;;;;;8.00;2.97;;;10.00;1.00;;;;;;5077588;28;20536;-67
2023/04/26 15:22:36;;;;;;;5.93;3.10;;;10.10;61.20;;;;;;5077256;28;20795;-66
2023/04/26 15:25:03;;;;;;;5.43;2.90;;;10.20;29.90;;;;;;5077656;28;20486;-67
2023/04/26 15:27:37;;;;;;;4.40;2.83;;;10.30;1.00;;;;;;5080475;28;20454;-67
2023/04/26 15:30:06;;;;;;;3.37;2.80;;;10.20;1.00;;;;;;5080096;28;20450;-66
2023/04/26 15:32:33;;;;;;;6.33;2.90;;;10.20;1.00;;;;;;5076437;28;20462;-67
2023/04/26 15:35:01;;;;;;;6.53;2.77;;;10.30;1.00;;;;;;5077432;28;20454;-67
2023/04/26 15:37:28;;;;;;;5.50;3.10;;;10.30;1.00;;;;;;5077278;28;20502;-68
2023/04/26 15:39:55;;;;;;;3.40;2.67;;;10.30;1.00;;;;;;5076978;28;20801;-67
2023/04/26 15:42:22;;;;;;;6.40;3.00;;;10.30;1.00;;;;;;5079349;28;20486;-66
2023/04/26 15:44:49;;;;;;;4.07;3.23;;;10.20;1.00;;;;;;5080344;28;20557;-68
2023/04/26 15:47:16;;;;;;;4.20;3.13;;;10.10;1.00;;;;;;5080357;28;20454;-69
2023/04/26 15:49:43;;;;;;;3.07;2.87;;;10.10;1.00;;;;;;5080497;28;20451;-68
2023/04/26 15:52:11;;;;;;;4.00;2.80;;;10.10;1.00;;;;;;5079871;28;20558;-67
2023/04/26 15:54:38;;;;;;;5.33;3.10;;;10.10;1.00;;;;;;5078834;28;20465;-67
2023/04/26 15:57:05;;;;;;;2.70;2.50;;;10.10;1.00;;;;;;5080035;28;20508;-68
2023/04/26 15:59:32;;;;;;;4.33;2.87;;;10.00;1.00;;;;;;5079204;28;20847;-67
2023/04/26 16:01:59;;;;;;;5.50;2.90;;;10.00;1.00;;;;;;5080226;28;20548;-68
2023/04/26 16:04:26;;;;;;;5.80;2.70;;;9.90;1.00;;;;;;5078974;28;20541;-68
2023/04/26 16:06:53;;;;;;;3.10;2.80;;;10.00;1.00;;;;;;5077806;28;20557;-68
2023/04/26 16:09:22;;;;;;;6.60;3.40;;;10.00;1.00;;;;;;5079425;28;20458;-68
2023/04/26 16:11:48;;;;;;;5.47;2.77;;;10.00;1.00;;;;;;5079186;28;20511;-67
2023/04/26 16:14:16;;;;;;;3.20;2.80;;;9.90;1.00;;;;;;5078528;28;20515;-68
2023/04/26 16:16:44;;;;;;;12.23;3.43;;;9.80;1.00;;;;;;5079694;28;20466;-68
2023/04/26 16:19:11;;;;;;;6.50;3.60;;;9.80;1.00;;;;;;5079902;28;20454;-67
2023/04/26 16:21:39;;;;;;;5.20;3.33;;;9.80;1.00;;;;;;5079773;28;20584;-68
2023/04/26 16:24:07;;;;;;;4.20;3.03;;;9.70;1.00;;;;;;5078670;28;20465;-67
2023/04/26 16:26:36;;;;;;;6.50;3.20;;;9.60;1.00;;;;;;5077342;28;20915;-69
2023/04/26 16:29:03;;;;;;;5.77;3.23;;;9.60;1.00;;;;;;5075842;28;20479;-67
2023/04/26 16:31:30;;;;;;;4.63;2.87;;;9.70;1.00;;;;;;5074987;28;20457;-67
2023/04/26 16:33:57;;;;;;;5.40;2.90;;;9.70;1.00;;;;;;5075360;28;20454;-67
2023/04/26 16:36:25;;;;;;;5.47;3.40;;;9.70;1.00;;;;;;5076137;28;20454;-67
2023/04/26 16:38:52;;;;;;;6.00;3.20;;;9.60;1.00;;;;;;5078279;28;20478;-68
2023/04/26 16:41:19;;;;;;;4.67;3.23;;;9.60;1.00;;;;;;5078323;28;20586;-67
2023/04/26 16:43:48;;;;;;;3.50;2.90;;;9.50;1.00;;;;;;5078856;28;20458;-67
2023/04/26 16:46:15;;;;;;;3.20;2.90;;;9.40;1.00;;;;;;5079077;28;20462;-67
2023/04/26 16:48:42;;;;;;;4.50;3.00;;;9.50;1.00;;;;;;5077326;28;20454;-67
2023/04/26 16:51:09;;;;;;;5.60;3.53;;;9.50;1.00;;;;;;5077398;28;20769;-68
2023/04/26 16:53:36;;;;;;;4.60;2.80;;;9.70;1.00;;;;;;5077741;28;20458;-66
2023/04/26 16:56:04;;;;;;;3.13;2.80;;;9.70;1.00;;;;;;5078665;28;20450;-67
2023/04/26 16:58:30;;;;;;;4.63;2.60;;;9.70;1.00;;;;;;5078584;28;20462;-66
2023/04/26 17:00:59;;;;;;;5.33;3.10;;;9.60;1.00;;;;;;5078763;28;20573;-67
2023/04/26 17:03:27;;;;;;;5.97;3.23;;;9.70;1.00;;;;;;5078858;28;20458;-67
2023/04/26 17:05:53;;;;;;;6.87;3.20;;;9.60;1.00;;;;;;5078380;28;20561;-67
2023/04/26 17:08:20;;;;;;;5.10;3.03;;;9.60;1.00;;;;;;5078587;28;20565;-65
2023/04/26 17:10:48;;;;;;;4.10;2.80;;;9.60;1.00;;;;;;5077842;28;20504;-67
2023/04/26 17:13:15;;;;;;;5.00;3.13;;;9.70;1.00;;;;;;5077994;28;20490;-66
2023/04/26 17:15:42;;;;;;;3.90;2.80;;;9.70;1.00;;;;;;5077222;28;20486;-67
2023/04/26 17:18:11;;;;;;;2.60;2.40;;;9.80;1.00;;;;;;5076731;28;20453;-66
2023/04/26 17:20:38;;;;;;;3.37;2.87;;;9.80;1.00;;;;;;5078648;28;20531;-67
2023/04/26 17:23:06;;;;;;;8.63;4.10;;;9.80;1.00;;;;;;5077655;28;20544;-67
2023/04/26 17:25:33;;;;;;;4.80;2.73;;;9.90;1.00;;;;;;5078744;28;20541;-67
2023/04/26 17:28:00;;;;;;;5.67;2.83;;;9.80;2.30;;;;;;5078389;28;20458;-67
2023/04/26 17:30:27;;;;;;;4.90;3.13;;;9.60;1.00;;;;;;5077553;28;20450;-67
2023/04/26 17:32:54;;;;;;;4.70;3.03;;;9.70;1.00;;;;;;5077552;28;20549;-67
2023/04/26 17:35:22;;;;;;;9.50;7.50;;;9.60;1.00;;;;;;5077298;28;20450;-67
2023/04/26 17:37:49;;;;;;;3.90;3.27;;;9.60;1.00;;;;;;5077979;28;20497;-67
2023/04/26 17:40:17;;;;;;;14.07;4.63;;;9.60;1.00;;;;;;5078030;28;20462;-67
2023/04/26 17:42:44;;;;;;;9.60;3.67;;;9.60;1.00;;;;;;5078363;28;20461;-67
2023/04/26 17:45:11;;;;;;;4.73;3.50;;;9.60;1.00;;;;;;5078281;28;20462;-67
2023/04/26 17:47:38;;;;;;;3.70;3.23;;;9.60;1.00;;;;;;5078187;28;20789;-67
2023/04/26 17:50:06;;;;;;;4.73;2.77;;;9.50;1.00;;;;;;5077459;28;20464;-68
2023/04/26 17:52:35;;;;;;;4.57;3.10;;;9.50;1.00;;;;;;5078186;28;20458;-66
2023/04/26 17:55:03;;;;;;;4.67;2.67;;;9.50;1.00;;;;;;5077301;28;20465;-67
2023/04/26 17:57:30;;;;;;;4.63;3.10;;;9.40;1.00;;;;;;5077035;28;20526;-68
2023/04/26 17:59:56;;;;;;;8.23;2.90;;;9.30;1.00;;;;;;5077983;28;20458;-67
2023/04/26 18:02:23;;;;;;;5.83;2.67;;;9.30;1.00;;;;;;5081373;28;20487;-66
2023/04/26 18:04:50;;;;;;;9.00;2.60;;;9.20;1.00;;;;;;5081637;28;20923;-66
2023/04/26 18:07:18;;;;;;;5.30;3.33;;;9.20;1.00;;;;;;5080975;28;20525;-67
2023/04/26 18:09:46;;;;;;;2.80;2.43;;;9.10;1.00;;;;;;5081592;28;20797;-66
2023/04/26 18:12:13;;;;;;;7.53;3.17;;;9.10;44.00;;;;;;5080990;28;20450;-66
2023/04/26 18:14:43;;;;;;;6.00;3.00;;;9.10;1.00;;;;;;5081551;28;20518;-66
2023/04/26 18:17:11;;;;;;;3.83;2.57;;;9.00;13.40;;;;;;5080350;28;20483;-66
2023/04/26 18:19:39;;;;;;;2.63;2.43;;;9.10;20.10;;;;;;5080202;28;20584;-66
2023/04/26 18:22:06;;;;;;;4.37;2.80;;;9.10;99.90;;;;;;5078916;28;20799;-67
2023/04/26 18:24:33;;;;;;;5.13;3.77;;;9.00;1.00;;;;;;5079120;28;20465;-66
2023/04/26 18:27:02;;;;;;;4.10;3.10;;;9.10;99.90;;;;;;5079355;28;20464;-66
2023/04/26 18:29:29;;;;;;;5.40;3.20;;;9.00;99.90;;;;;;5078356;28;20458;-67
2023/04/26 18:31:57;;;;;;;4.63;2.63;;;9.00;94.20;;;;;;5078656;28;20454;-67
2023/04/26 18:34:24;;;;;;;6.40;2.97;;;8.90;1.00;;;;;;5079483;28;20471;-67
2023/04/26 18:36:51;;;;;;;4.77;3.13;;;8.90;1.00;;;;;;5078979;28;20485;-68
2023/04/26 18:39:17;;;;;;;5.90;2.90;;;8.90;1.00;;;;;;5078811;28;20474;-67
2023/04/26 18:41:44;;;;;;;3.60;3.13;;;8.80;99.90;;;;;;5078810;28;20493;-67
2023/04/26 18:44:13;;;;;;;11.83;3.57;;;8.80;1.00;;;;;;5078766;28;20458;-67
2023/04/26 18:46:40;;;;;;;6.33;3.60;;;8.80;1.00;;;;;;5079342;28;20861;-67
2023/04/26 18:49:07;;;;;;;5.60;3.40;;;8.80;1.00;;;;;;5080423;28;20461;-67
2023/04/26 18:51:34;;;;;;;5.60;3.33;;;8.70;1.00;;;;;;5080148;28;20533;-67
2023/04/26 18:54:01;;;;;;;6.07;3.50;;;8.80;16.90;;;;;;5079864;28;20911;-67
2023/04/26 18:56:29;;;;;;;6.90;3.90;;;8.80;1.00;;;;;;5079174;28;20462;-67
2023/04/26 18:58:56;;;;;;;4.57;3.60;;;8.80;13.30;;;;;;5078281;28;20453;-67
2023/04/26 19:01:24;;;;;;;5.83;3.40;;;8.70;21.80;;;;;;5078823;28;20564;-67
2023/04/26 19:03:51;;;;;;;8.77;4.60;;;8.70;1.00;;;;;;5078134;28;20481;-67
2023/04/26 19:06:18;;;;;;;6.73;3.53;;;8.70;1.00;;;;;;5077965;28;20540;-66
2023/04/26 19:08:45;;;;;;;5.60;3.83;;;8.60;99.90;;;;;;5077398;28;20798;-67
2023/04/26 19:11:13;;;;;;;6.47;3.73;;;8.60;1.00;;;;;;5076670;28;20454;-67
2023/04/26 19:13:40;;;;;;;4.40;3.53;;;8.60;1.00;;;;;;5078156;28;20550;-67
2023/04/26 19:16:07;;;;;;;3.77;3.30;;;8.50;1.00;;;;;;5079745;28;20906;-67
2023/04/26 19:18:39;;;;;;;6.33;3.97;;;8.40;1.00;;;;;;5078935;28;20464;-67
2023/04/26 19:21:06;;;;;;;13.27;4.00;;;8.40;25.50;;;;;;5078979;28;20466;-68
2023/04/26 19:23:33;;;;;;;5.03;3.87;;;8.30;99.90;;;;;;5078165;28;20465;-66
2023/04/26 19:26:04;;;;;;;5.10;4.60;;;8.30;2.40;;;;;;5077203;28;20737;-67
2023/04/26 19:28:31;;;;;;;5.40;3.60;;;8.30;52.20;;;;;;5077660;28;20549;-67
2023/04/26 19:30:59;;;;;;;6.47;4.03;;;8.30;99.90;;;;;;5078077;28;20876;-67
2023/04/26 19:33:27;;;;;;;8.00;3.60;;;8.20;99.90;;;;;;5077444;28;20836;-67
2023/04/26 19:35:56;;;;;;;7.97;3.80;;;8.30;99.90;;;;;;5077534;28;20797;-67
2023/04/26 19:38:23;;;;;;;5.67;3.30;;;8.20;1.00;;;;;;5076589;28;20486;-67
2023/04/26 19:40:50;;;;;;;7.13;3.93;;;8.20;1.00;;;;;;5076164;28;20454;-67
2023/04/26 19:43:17;;;;;;;4.03;3.63;;;8.20;1.00;;;;;;5076751;28;20844;-67
2023/04/26 19:45:44;;;;;;;5.20;3.80;;;8.30;1.00;;;;;;5076588;28;20549;-67
2023/04/26 19:48:12;;;;;;;4.53;4.10;;;8.30;1.00;;;;;;5076399;28;20474;-67
2023/04/26 19:50:40;;;;;;;6.17;4.37;;;8.30;1.00;;;;;;5077223;28;20518;-67
2023/04/26 19:53:09;;;;;;;7.80;3.23;;;8.20;1.00;;;;;;5077397;28;20457;-66
2023/04/26 19:55:36;;;;;;;6.20;3.30;;;8.20;1.00;;;;;;5076616;28;20919;-68
2023/04/26 19:58:03;;;;;;;6.60;3.83;;;8.20;1.00;;;;;;5077017;28;20454;-67
2023/04/26 20:00:34;;;;;;;4.90;4.10;;;8.10;1.00;;;;;;5076783;28;20454;-67
2023/04/26 20:03:02;;;;;;;6.23;4.30;;;8.20;1.00;;;;;;5076070;28;20470;-67
2023/04/26 20:05:32;;;;;;;6.50;4.10;;;8.20;1.00;;;;;;5076271;28;20458;-67
2023/04/26 20:07:59;;;;;;;12.70;4.30;;;8.10;1.00;;;;;;5079060;28;20740;-67
2023/04/26 20:10:30;;;;;;;8.13;5.60;;;8.10;1.00;;;;;;5078312;28;20515;-67
2023/04/26 20:12:58;;;;;;;6.23;4.20;;;8.00;1.00;;;;;;5077377;28;20435;-67
2023/04/26 20:15:25;;;;;;;7.77;4.47;;;8.10;1.00;;;;;;5077610;28;20519;-67
2023/04/26 20:17:54;;;;;;;10.07;4.40;;;8.10;1.00;;;;;;5077461;28;20500;-66
2023/04/26 20:20:24;;;;;;;10.53;4.97;;;8.00;1.00;;;;;;5076723;28;20454;-66
2023/04/26 20:22:54;;;;;;;7.00;3.80;;;8.10;1.00;;;;;;5076453;28;21034;-66
2023/04/26 20:25:21;;;;;;;5.67;3.80;;;8.10;1.00;;;;;;5077891;28;20493;-67
2023/04/26 20:27:50;;;;;;;7.70;4.27;;;8.10;14.60;;;;;;5077427;28;20911;-67
2023/04/26 20:30:17;;;;;;;7.80;4.20;;;8.00;1.00;;;;;;5077335;28;20466;-67
2023/04/26 20:32:44;;;;;;;9.27;4.47;;;8.00;1.00;;;;;;5076662;28;20514;-67
2023/04/26 20:35:12;;;;;;;5.67;3.90;;;8.00;1.00;;;;;;5077053;28;20469;-67
2023/04/26 20:37:39;;;;;;;9.70;3.93;;;8.10;1.00;;;;;;5077134;28;20627;-67
2023/04/26 20:40:08;;;;;;;4.23;3.40;;;7.90;1.00;;;;;;5077935;28;20545;-67
2023/04/26 20:42:35;;;;;;;3.83;3.50;;;8.00;1.00;;;;;;5076728;28;20942;-67
2023/04/26 20:45:03;;;;;;;4.30;3.37;;;8.00;1.00;;;;;;5076876;28;20458;-68
2023/04/26 20:47:30;;;;;;;6.27;3.50;;;7.90;1.00;;;;;;5077891;28;20454;-67
2023/04/26 20:49:57;;;;;;;4.00;3.60;;;7.90;1.00;;;;;;5078306;28;20450;-67
2023/04/26 20:52:27;;;;;;;9.87;3.70;;;7.90;1.00;;;;;;5077707;28;20508;-68
2023/04/26 20:54:56;;;;;;;4.20;3.33;;;7.80;1.00;;;;;;5077805;28;20783;-66
2023/04/26 20:57:22;;;;;;;11.47;3.53;;;7.90;1.00;;;;;;5078181;28;20450;-67
2023/04/26 20:59:49;;;;;;;4.27;3.63;;;7.80;1.00;;;;;;5076987;28;20462;-67
2023/04/26 21:02:17;;;;;;;5.77;3.60;;;7.90;1.00;;;;;;5075714;28;20573;-67
2023/04/26 21:04:45;;;;;;;4.23;3.17;;;7.90;1.00;;;;;;5076003;28;20537;-68
2023/04/26 21:07:12;;;;;;;4.43;3.50;;;8.00;1.00;;;;;;5076757;28;20512;-68
2023/04/26 21:09:39;;;;;;;9.43;3.70;;;7.90;1.00;;;;;;5076857;28;20902;-68
2023/04/26 21:12:06;;;;;;;7.73;3.80;;;7.90;1.00;;;;;;5076648;28;20438;-68
2023/04/26 21:14:33;;;;;;;7.00;3.37;;;7.90;1.00;;;;;;5077128;28;20513;-67
2023/04/26 21:17:00;;;;;;;3.90;2.97;;;7.90;1.00;;;;;;5076422;28;20553;-67
2023/04/26 21:19:28;;;;;;;6.40;3.30;;;7.90;1.00;;;;;;5076667;28;20454;-67
2023/04/26 21:21:58;;;;;;;3.20;2.90;;;7.90;1.00;;;;;;5076336;28;20878;-66
2023/04/26 21:24:25;;;;;;;10.47;3.67;;;7.90;1.00;;;;;;5076753;28;20454;-67
2023/04/26 21:26:52;;;;;;;7.50;3.47;;;7.80;1.00;;;;;;5076373;28;20549;-68
2023/04/26 21:29:19;;;;;;;8.13;4.03;;;7.90;1.00;;;;;;5075516;28;20473;-67
2023/04/26 21:31:46;;;;;;;10.30;3.70;;;7.90;1.00;;;;;;5075782;28;20914;-67
2023/04/26 21:34:12;;;;;;;7.27;3.93;;;7.90;1.00;;;;;;5075504;28;20504;-67
2023/04/26 21:36:41;;;;;;;6.43;3.63;;;7.90;1.00;;;;;;5075618;28;20500;-67
2023/04/26 21:39:08;;;;;;;4.60;4.20;;;7.90;1.00;;;;;;5075079;28;20887;-67
2023/04/26 21:41:34;;;;;;;5.03;3.27;;;7.90;1.00;;;;;;5075230;28;20478;-67
2023/04/26 21:44:01;;;;;;;6.00;3.97;;;7.90;1.00;;;;;;5075472;28;20561;-67
2023/04/26 21:46:28;;;;;;;5.20;3.83;;;7.90;1.00;;;;;;5075614;28;20454;-66
2023/04/26 21:48:55;;;;;;;7.70;4.03;;;7.90;1.00;;;;;;5075344;28;20450;-67
2023/04/26 21:51:22;;;;;;;7.00;3.90;;;7.90;1.00;;;;;;5074704;28;21021;-68
2023/04/26 21:53:50;;;;;;;5.50;3.70;;;7.90;1.00;;;;;;5074920;28;20603;-67
2023/04/26 21:56:17;;;;;;;6.40;3.83;;;8.00;1.00;;;;;;5075598;28;20549;-67
2023/04/26 21:58:44;;;;;;;7.63;4.40;;;7.90;1.00;;;;;;5076440;28;20454;-66
2023/04/26 22:01:14;;;;;;;10.70;4.17;;;7.90;1.00;;;;;;5076483;28;20450;-67
2023/04/26 22:03:41;;;;;;;9.80;4.67;;;7.80;1.00;;;;;;5077000;28;20466;-67
2023/04/26 22:06:09;;;;;;;9.93;4.53;;;7.80;1.00;;;;;;5076669;28;20541;-67
2023/04/26 22:08:37;;;;;;;6.50;4.60;;;7.90;1.00;;;;;;5075850;28;20454;-67
2023/04/26 22:11:05;;;;;;;5.53;4.20;;;7.80;1.00;;;;;;5077996;28;20450;-67
2023/04/26 22:13:32;;;;;;;10.07;4.40;;;7.80;1.00;;;;;;5077359;28;20477;-67
2023/04/26 22:15:59;;;;;;;7.03;4.00;;;7.80;1.00;;;;;;5077967;28;20479;-67
2023/04/26 22:18:27;;;;;;;11.27;4.37;;;7.80;1.00;;;;;;5077172;28;20512;-67
2023/04/26 22:20:54;;;;;;;4.43;3.97;;;7.80;1.00;;;;;;5076826;28;20469;-67
2023/04/26 22:23:21;;;;;;;5.77;4.13;;;7.80;1.00;;;;;;5077732;28;20509;-67
2023/04/26 22:25:48;;;;;;;6.37;4.30;;;7.80;1.00;;;;;;5077891;28;20517;-68
2023/04/26 22:28:16;;;;;;;9.90;4.00;;;7.70;1.00;;;;;;5078277;28;20454;-67
2023/04/26 22:30:43;;;;;;;7.30;3.83;;;7.70;1.00;;;;;;5078637;28;20461;-67
2023/04/26 22:33:11;;;;;;;5.20;3.77;;;7.70;1.00;;;;;;5076533;28;20454;-68
2023/04/26 22:35:38;;;;;;;6.27;3.70;;;7.70;1.00;;;;;;5076495;28;20827;-68
2023/04/26 22:38:04;;;;;;;7.40;3.30;;;7.70;1.00;;;;;;5076914;28;20478;-68
2023/04/26 22:40:32;;;;;;;5.93;2.50;;;7.70;1.00;;;;;;5078340;28;20485;-67
2023/04/26 22:42:58;;;;;;;5.10;3.57;;;7.60;1.00;;;;;;5076708;28;20489;-68
2023/04/26 22:45:27;;;;;;;3.93;3.20;;;7.60;1.00;;;;;;5076718;28;20454;-68
2023/04/26 22:47:53;;;;;;;7.03;2.80;;;7.60;1.00;;;;;;5079994;28;20453;-67